createdAt,value
2022-11-23T00:01:21.497Z,75.13
2022-11-23T00:03:49.966Z,58.40
2022-11-23T00:06:17.663Z,50.67
2022-11-23T00:08:45.156Z,52.07
2022-11-23T00:11:12.516Z,54.67
2022-11-23T00:13:40.742Z,52.27
2022-11-23T00:16:13.808Z,65.33
2022-11-23T00:18:40.956Z,58.87
2022-11-23T00:21:12.406Z,63.10
2022-11-23T00:23:39.539Z,62.50
2022-11-23T00:26:07.198Z,59.17
2022-11-23T00:28:37.400Z,57.43
2022-11-23T00:31:04.544Z,52.50
2022-11-23T00:33:31.665Z,58.43
2022-11-23T00:36:02.757Z,52.27
2022-11-23T00:38:30.022Z,51.85
2022-11-23T00:41:01.235Z,48.67
2022-11-23T00:43:29.113Z,59.80
2022-11-23T00:46:14.296Z,54.87
2022-11-23T00:48:41.572Z,64.73
2022-11-23T00:51:10.138Z,56.80
2022-11-23T00:53:37.284Z,80.97
2022-11-23T00:56:04.495Z,53.00
2022-11-23T00:58:31.729Z,64.10
2022-11-23T01:01:03.144Z,55.30
2022-11-23T01:03:30.706Z,64.97
2022-11-23T01:06:02.898Z,52.33
2022-11-23T01:08:30.187Z,54.83
2022-11-23T01:11:04.408Z,59.57
2022-11-23T01:13:31.794Z,57.40
2022-11-23T01:15:59.016Z,53.43
2022-11-23T01:18:26.604Z,47.97
2022-11-23T01:20:53.649Z,49.17
2022-11-23T01:23:20.761Z,55.27
2022-11-23T01:25:49.266Z,48.90
2022-11-23T01:28:18.139Z,57.13
2022-11-23T01:30:45.239Z,56.23
2022-11-23T01:33:12.386Z,44.43
2022-11-23T01:35:39.525Z,62.17
2022-11-23T01:38:06.645Z,74.43
2022-11-23T01:40:41.098Z,62.73
2022-11-23T01:43:11.866Z,59.37
2022-11-23T01:45:40.414Z,70.20
2022-11-23T01:48:11.961Z,64.23
2022-11-23T01:50:39.264Z,64.22
2022-11-23T01:53:06.754Z,55.07
2022-11-23T01:55:34.792Z,53.03
2022-11-23T01:58:02.407Z,60.53
2022-11-23T02:00:29.699Z,53.93
2022-11-23T02:02:58.376Z,59.07
2022-11-23T02:05:28.661Z,44.67
2022-11-23T02:07:56.219Z,48.17
2022-11-23T02:10:23.781Z,48.00
2022-11-23T02:12:51.009Z,49.00
2022-11-23T02:15:18.184Z,46.97
2022-11-23T02:17:45.512Z,36.37
2022-11-23T02:20:18.348Z,47.47
2022-11-23T02:22:51.690Z,45.90
2022-11-23T02:25:37.325Z,35.97
2022-11-23T02:28:04.634Z,39.03
2022-11-23T02:30:32.748Z,39.10
2022-11-23T02:32:59.894Z,41.53
2022-11-23T02:35:27.055Z,42.23
2022-11-23T02:37:54.302Z,40.07
2022-11-23T02:40:28.098Z,46.90
2022-11-23T02:42:55.404Z,42.20
2022-11-23T02:45:28.834Z,45.57
2022-11-23T02:47:56.702Z,41.13
2022-11-23T02:50:23.821Z,47.77
2022-11-23T02:52:50.985Z,43.73
2022-11-23T02:55:18.124Z,47.87
2022-11-23T02:57:45.308Z,46.83
2022-11-23T03:00:13.250Z,46.60
2022-11-23T03:02:40.394Z,51.73
2022-11-23T03:05:07.985Z,45.87
2022-11-23T03:07:35.249Z,46.60
2022-11-23T03:10:02.759Z,44.77
2022-11-23T03:12:29.889Z,46.13
2022-11-23T03:14:57.268Z,41.57
2022-11-23T03:17:24.495Z,42.70
2022-11-23T03:19:51.560Z,38.73
2022-11-23T03:22:18.743Z,37.03
2022-11-23T03:24:46.097Z,37.13
2022-11-23T03:27:13.308Z,33.20
2022-11-23T03:29:40.462Z,35.53
2022-11-23T03:32:07.645Z,34.03
2022-11-23T03:34:34.862Z,30.47
2022-11-23T03:37:02.042Z,31.57
2022-11-23T03:39:29.653Z,31.33
2022-11-23T03:41:56.873Z,34.77
2022-11-23T03:44:24.131Z,29.47
2022-11-23T03:46:51.304Z,29.70
2022-11-23T03:49:18.493Z,33.10
2022-11-23T03:51:45.670Z,31.43
2022-11-23T03:54:12.873Z,27.17
2022-11-23T03:56:39.999Z,27.07
2022-11-23T03:59:07.071Z,29.00
2022-11-23T04:01:34.162Z,30.77
2022-11-23T04:04:01.312Z,30.20
2022-11-23T04:06:28.517Z,28.07
2022-11-23T04:09:00.506Z,28.77
2022-11-23T04:11:29.107Z,28.33
2022-11-23T04:13:56.204Z,25.80
2022-11-23T04:16:23.362Z,26.67
2022-11-23T04:18:50.394Z,28.30
2022-11-23T04:21:17.446Z,26.13
2022-11-23T04:23:44.574Z,26.13
2022-11-23T04:26:11.696Z,28.23
2022-11-23T04:28:38.823Z,26.40
2022-11-23T04:31:06.114Z,26.13
2022-11-23T04:33:33.328Z,25.00
2022-11-23T04:36:00.695Z,27.23
2022-11-23T04:38:27.876Z,24.17
2022-11-23T04:40:55.036Z,25.73
2022-11-23T04:43:22.199Z,29.37
2022-11-23T04:45:49.297Z,30.33
2022-11-23T04:48:16.500Z,28.10
2022-11-23T04:50:46.623Z,24.50
2022-11-23T04:53:14.011Z,25.33
2022-11-23T04:55:41.132Z,29.00
2022-11-23T04:58:08.260Z,34.00
2022-11-23T05:00:35.440Z,27.00
2022-11-23T05:03:02.655Z,28.13
2022-11-23T05:05:30.151Z,24.77
2022-11-23T05:07:57.653Z,27.70
2022-11-23T05:10:24.742Z,32.03
2022-11-23T05:12:51.774Z,26.90
2022-11-23T05:15:18.930Z,28.07
2022-11-23T05:17:46.061Z,24.40
2022-11-23T05:20:13.202Z,25.77
2022-11-23T05:22:40.349Z,27.80
2022-11-23T05:25:07.642Z,22.57
2022-11-23T05:27:35.253Z,24.53
2022-11-23T05:30:02.608Z,23.50
2022-11-23T05:32:29.672Z,28.53
2022-11-23T05:34:56.735Z,28.60
2022-11-23T05:37:23.785Z,32.40
2022-11-23T05:39:50.821Z,27.10
2022-11-23T05:42:17.949Z,29.50
2022-11-23T05:44:45.012Z,34.33
2022-11-23T05:47:12.082Z,30.30
2022-11-23T05:49:39.146Z,34.37
2022-11-23T05:52:06.274Z,33.67
2022-11-23T05:54:33.377Z,30.17
2022-11-23T05:57:00.409Z,29.93
2022-11-23T05:59:27.563Z,30.20
2022-11-23T06:01:54.655Z,31.83
2022-11-23T06:04:21.737Z,35.83
2022-11-23T06:06:48.914Z,35.23
2022-11-23T06:09:16.124Z,32.93
2022-11-23T06:11:44.621Z,22.67
2022-11-23T06:14:14.509Z,23.73
2022-11-23T06:16:41.832Z,28.20
2022-11-23T06:19:08.908Z,22.63
2022-11-23T06:21:36.101Z,23.97
2022-11-23T06:24:03.250Z,21.63
2022-11-23T06:26:30.444Z,22.43
2022-11-23T06:28:58.128Z,24.47
2022-11-23T06:31:25.320Z,23.23
2022-11-23T06:33:53.236Z,24.80
2022-11-23T06:36:20.334Z,29.87
2022-11-23T06:38:47.479Z,26.47
2022-11-23T06:41:14.551Z,23.23
2022-11-23T06:43:41.679Z,29.70
2022-11-23T06:46:08.762Z,30.47
2022-11-23T06:48:35.864Z,22.77
2022-11-23T06:51:02.955Z,29.23
2022-11-23T06:53:30.223Z,33.27
2022-11-23T06:56:00.949Z,28.67
2022-11-23T06:58:29.453Z,35.30
2022-11-23T07:01:01.795Z,41.10
2022-11-23T07:03:29.141Z,32.07
2022-11-23T07:05:56.280Z,33.97
2022-11-23T07:08:23.641Z,41.00
2022-11-23T07:10:50.961Z,36.43
2022-11-23T07:13:18.029Z,31.50
2022-11-23T07:15:45.138Z,35.13
2022-11-23T07:18:13.054Z,36.63
2022-11-23T07:20:40.125Z,38.77
2022-11-23T07:23:08.880Z,31.07
2022-11-23T07:25:36.678Z,34.13
2022-11-23T07:28:04.385Z,34.53
2022-11-23T07:30:32.651Z,28.73
2022-11-23T07:33:08.257Z,40.47
2022-11-23T07:35:36.113Z,32.20
2022-11-23T07:38:03.418Z,33.20
2022-11-23T07:40:30.513Z,30.77
2022-11-23T07:43:01.419Z,38.60
2022-11-23T07:45:28.955Z,31.87
2022-11-23T07:48:00.093Z,39.77
2022-11-23T07:50:27.558Z,35.70
2022-11-23T07:52:54.612Z,31.03
2022-11-23T07:55:23.230Z,36.10
2022-11-23T07:57:54.257Z,27.07
2022-11-23T08:00:25.075Z,24.95
2022-11-23T08:03:25.606Z,31.17
2022-11-23T08:05:39.263Z,31.90
2022-11-23T08:08:06.372Z,29.23
2022-11-23T08:10:33.955Z,27.23
2022-11-23T08:13:05.380Z,35.30
2022-11-23T08:15:32.972Z,36.60
2022-11-23T08:18:03.878Z,28.07
2022-11-23T08:20:31.637Z,22.17
2022-11-23T08:22:58.773Z,30.27
2022-11-23T08:25:26.557Z,25.90
2022-11-23T08:27:57.859Z,24.60
2022-11-23T08:30:25.235Z,21.73
2022-11-23T08:32:52.327Z,23.17
2022-11-23T08:35:19.465Z,26.67
2022-11-23T08:37:46.496Z,21.00
2022-11-23T08:40:14.235Z,21.43
2022-11-23T08:42:41.307Z,21.13
2022-11-23T08:45:08.755Z,16.70
2022-11-23T08:47:35.853Z,27.50
2022-11-23T08:50:02.961Z,18.90
2022-11-23T08:52:30.046Z,22.43
2022-11-23T08:54:57.266Z,20.20
2022-11-23T08:57:24.485Z,20.60
2022-11-23T08:59:51.624Z,19.67
2022-11-23T09:02:18.930Z,16.57
2022-11-23T09:04:46.014Z,18.93
2022-11-23T09:07:13.294Z,18.30
2022-11-23T09:09:40.509Z,18.83
2022-11-23T09:12:07.689Z,19.67
2022-11-23T09:14:35.007Z,19.93
2022-11-23T09:32:07.761Z,20.13
2022-11-23T09:34:35.375Z,18.87
2022-11-23T09:37:02.865Z,20.73
2022-11-23T09:39:30.234Z,22.10
2022-11-23T09:42:09.838Z,65.13
2022-11-23T09:45:12.368Z,23.23
2022-11-23T09:48:03.620Z,20.07
2022-11-23T09:50:45.924Z,16.98
2022-11-23T09:53:39.594Z,24.20
2022-11-23T09:56:22.400Z,23.17
2022-11-23T09:58:55.074Z,24.73
2022-11-23T10:01:23.141Z,19.00
2022-11-23T10:03:50.761Z,18.67
2022-11-23T10:06:26.822Z,19.90
2022-11-23T10:09:05.775Z,18.53
2022-11-23T10:12:00.400Z,16.77
2022-11-23T10:14:27.760Z,19.10
2022-11-23T10:17:11.252Z,18.30
2022-11-23T10:20:08.288Z,19.17
2022-11-23T10:23:04.790Z,19.07
2022-11-23T10:25:45.420Z,18.63
2022-11-23T10:28:15.159Z,19.47
2022-11-23T10:30:43.860Z,22.07
2022-11-23T10:33:27.219Z,23.10
2022-11-23T10:35:54.585Z,18.90
2022-11-23T10:38:25.746Z,22.33
2022-11-23T10:41:13.479Z,23.60
2022-11-23T10:43:55.894Z,18.90
2022-11-23T10:46:41.537Z,20.40
2022-11-23T10:49:14.280Z,21.53
2022-11-23T10:52:08.885Z,20.13
2022-11-23T10:54:49.438Z,19.83
2022-11-23T10:57:22.703Z,28.43
2022-11-23T11:00:12.974Z,27.87
2022-11-23T11:02:47.726Z,23.07
2022-11-23T11:09:01.465Z,18.27
2022-11-23T11:11:40.199Z,19.87
2022-11-23T11:14:21.047Z,17.70
2022-11-23T11:16:54.230Z,22.50
2022-11-23T11:19:32.063Z,25.80
2022-11-23T11:22:04.881Z,19.53
2022-11-23T11:24:39.854Z,17.23
2022-11-23T11:27:23.062Z,18.17
2022-11-23T11:30:04.222Z,19.27
2022-11-23T11:32:54.738Z,21.25
2022-11-23T11:35:32.488Z,18.50
2022-11-23T11:38:13.804Z,55.07
2022-11-23T11:40:47.802Z,35.80
2022-11-23T11:43:38.888Z,17.63
2022-11-23T11:46:29.142Z,23.05
2022-11-23T11:49:17.517Z,25.77
2022-11-23T11:51:54.632Z,21.37
2022-11-23T11:54:43.803Z,29.07
2022-11-23T11:57:20.886Z,43.10
2022-11-23T11:59:50.149Z,35.03
2022-11-23T12:02:35.398Z,146.73
2022-11-23T12:05:24.539Z,54.37
2022-11-23T12:08:14.575Z,53.20
2022-11-23T12:10:54.589Z,86.53
2022-11-23T12:13:29.772Z,103.03
2022-11-23T12:16:04.144Z,24.87
2022-11-23T12:18:49.588Z,42.97
2022-11-23T12:21:57.508Z,24.73
2022-11-23T12:24:25.113Z,30.40
2022-11-23T12:27:24.836Z,26.93
2022-11-23T12:30:25.972Z,23.57
2022-11-23T12:33:03.788Z,27.10
2022-11-23T12:35:33.515Z,30.80
2022-11-23T12:38:30.102Z,34.23
2022-11-23T12:41:08.825Z,35.77
2022-11-23T12:43:43.054Z,32.37
2022-11-23T12:46:36.817Z,28.13
2022-11-23T12:49:20.314Z,30.33
2022-11-23T12:52:18.379Z,38.00
2022-11-23T12:54:56.787Z,30.77
2022-11-23T12:57:37.431Z,25.93
2022-11-23T13:00:21.583Z,31.27
2022-11-23T13:02:57.623Z,24.83
2022-11-23T13:05:42.678Z,28.37
2022-11-23T13:08:35.036Z,27.43
2022-11-23T13:11:20.782Z,30.33
2022-11-23T13:14:21.539Z,27.30
2022-11-23T13:17:00.728Z,28.20
2022-11-23T13:19:44.217Z,26.40
2022-11-23T13:22:22.287Z,28.77
2022-11-23T13:25:23.502Z,29.47
2022-11-23T13:27:50.375Z,23.33
2022-11-23T13:30:24.977Z,31.67
2022-11-23T13:33:21.066Z,25.73
2022-11-23T13:36:03.543Z,35.23
2022-11-23T13:38:44.108Z,25.40
2022-11-23T13:41:33.599Z,29.43
2022-11-23T13:44:18.862Z,27.57
2022-11-23T13:46:55.993Z,26.03
2022-11-23T13:49:49.014Z,28.70
2022-11-23T13:52:21.381Z,28.60
2022-11-23T13:54:55.127Z,30.37
2022-11-23T13:57:22.610Z,33.27
2022-11-23T13:59:49.272Z,31.37
2022-11-23T14:02:29.457Z,33.33
2022-11-23T14:05:33.602Z,29.07
2022-11-23T14:08:02.826Z,44.00
2022-11-23T14:10:31.422Z,33.70
2022-11-23T14:13:11.699Z,30.47
2022-11-23T14:15:44.797Z,33.03
2022-11-23T14:18:32.816Z,30.30
2022-11-23T14:21:19.163Z,29.30
2022-11-23T14:24:00.754Z,31.47
2022-11-23T14:26:42.347Z,26.58
2022-11-23T14:29:22.336Z,28.88
2022-11-23T14:32:00.301Z,39.37
2022-11-23T14:34:56.738Z,44.70
2022-11-23T14:37:32.792Z,28.20
2022-11-23T14:40:37.058Z,27.57
2022-11-23T14:43:15.208Z,42.93
2022-11-23T14:45:42.089Z,41.97
2022-11-23T14:48:44.513Z,47.13
2022-11-23T14:51:26.728Z,49.87
2022-11-23T14:53:55.975Z,35.87
2022-11-23T14:56:36.759Z,47.80
2022-11-23T14:59:15.195Z,75.63
2022-11-23T15:01:48.521Z,49.63
2022-11-23T15:04:25.396Z,56.77
2022-11-23T15:06:57.975Z,51.77
2022-11-23T15:09:44.678Z,38.53
2022-11-23T15:12:25.957Z,48.63
2022-11-23T15:14:53.983Z,38.67
2022-11-23T15:17:22.565Z,41.93
2022-11-23T15:19:56.600Z,37.77
2022-11-23T15:22:24.567Z,49.50
2022-11-23T15:24:52.090Z,50.27
2022-11-23T15:27:28.403Z,56.67
2022-11-23T15:29:57.354Z,51.80
2022-11-23T15:32:31.163Z,42.13
2022-11-23T15:35:00.691Z,40.33
2022-11-23T15:37:28.740Z,45.37
2022-11-23T15:39:56.555Z,49.83
2022-11-23T15:42:25.342Z,60.80
2022-11-23T15:44:54.524Z,44.63
2022-11-23T15:47:26.167Z,51.73
2022-11-23T15:49:55.870Z,52.40
2022-11-23T15:52:23.260Z,49.33
2022-11-23T15:54:50.390Z,62.93
2022-11-23T15:57:22.886Z,53.30
2022-11-23T15:59:51.106Z,54.20
2022-11-23T16:02:26.067Z,49.13
2022-11-23T16:05:11.941Z,59.30
2022-11-23T16:07:57.853Z,52.53
2022-11-23T16:10:29.171Z,57.17
2022-11-23T16:12:57.263Z,51.05
2022-11-23T16:15:30.488Z,55.10
2022-11-23T16:17:57.585Z,53.67
2022-11-23T16:20:25.299Z,58.60
2022-11-23T16:22:53.571Z,63.93
2022-11-23T16:25:32.841Z,57.20
2022-11-23T16:27:59.900Z,52.07
2022-11-23T16:30:27.904Z,61.67
2022-11-23T16:32:55.008Z,62.33
2022-11-23T16:35:22.430Z,56.90
2022-11-23T16:37:49.564Z,46.93
2022-11-23T16:40:16.667Z,48.30
2022-11-23T16:42:44.391Z,45.43
2022-11-23T16:45:11.598Z,50.43
2022-11-23T16:47:51.634Z,41.47
2022-11-23T16:50:18.700Z,42.57
2022-11-23T16:52:46.001Z,45.77
2022-11-23T16:55:13.199Z,117.13
2022-11-23T16:57:40.411Z,157.03
2022-11-23T17:00:12.324Z,52.37
2022-11-23T17:05:15.428Z,44.50
2022-11-23T17:07:42.984Z,43.90
2022-11-23T17:10:10.687Z,49.93
2022-11-23T17:12:38.602Z,51.53
2022-11-23T17:15:06.170Z,54.47
2022-11-23T17:17:34.324Z,57.70
2022-11-23T17:20:04.539Z,55.70
2022-11-23T17:22:31.931Z,55.57
2022-11-23T17:26:33.874Z,66.53
2022-11-23T17:29:02.221Z,70.30
2022-11-23T17:31:29.414Z,59.97
2022-11-23T17:33:56.504Z,61.97
2022-11-23T17:36:23.557Z,58.93
2022-11-23T17:38:50.625Z,68.93
2022-11-23T17:41:17.894Z,57.73
2022-11-23T17:43:44.966Z,58.93
2022-11-23T17:46:23.836Z,63.20
2022-11-23T17:49:02.355Z,49.27
2022-11-23T17:51:29.891Z,44.73
2022-11-23T17:53:57.142Z,46.47
2022-11-23T17:56:25.651Z,52.30
2022-11-23T17:58:53.048Z,57.13
2022-11-23T18:01:21.550Z,52.57
2022-11-23T18:03:48.942Z,56.13
2022-11-23T18:06:17.172Z,55.53
2022-11-23T18:08:44.877Z,59.53
2022-11-23T18:11:12.010Z,65.17
2022-11-23T18:13:39.675Z,58.57
2022-11-23T18:16:07.178Z,64.27
2022-11-23T18:18:34.289Z,54.53
2022-11-23T18:21:01.672Z,52.27
2022-11-23T18:23:29.304Z,56.67
2022-11-23T18:26:03.559Z,57.03
2022-11-23T18:28:31.005Z,54.57
2022-11-23T18:30:58.353Z,56.93
2022-11-23T18:33:25.467Z,61.10
2022-11-23T18:35:52.480Z,61.93
2022-11-23T18:38:19.581Z,68.17
2022-11-23T18:40:46.621Z,69.03
2022-11-23T18:43:13.708Z,64.60
2022-11-23T18:45:40.933Z,74.07
2022-11-23T18:48:08.876Z,58.47
2022-11-23T18:50:37.032Z,61.07
2022-11-23T18:53:04.192Z,77.07
2022-11-23T18:55:31.248Z,72.17
2022-11-23T18:57:58.356Z,74.73
2022-11-23T19:00:25.564Z,72.17
2022-11-23T19:02:53.783Z,70.57
2022-11-23T19:05:20.875Z,78.73
2022-11-23T19:07:48.635Z,74.67
2022-11-23T19:10:15.876Z,68.27
2022-11-23T19:12:43.598Z,76.23
2022-11-23T19:15:11.388Z,64.03
2022-11-23T19:17:38.687Z,67.57
2022-11-23T19:20:08.275Z,68.43
2022-11-23T19:22:35.941Z,125.73
2022-11-23T19:25:03.294Z,124.77
2022-11-23T19:27:32.719Z,96.50
2022-11-23T19:29:59.781Z,75.50
2022-11-23T19:32:27.063Z,89.07
2022-11-23T19:34:55.295Z,91.73
2022-11-23T19:37:22.349Z,98.83
2022-11-23T19:39:49.406Z,110.03
2022-11-23T19:42:16.432Z,93.63
2022-11-23T19:44:43.619Z,113.50
2022-11-23T19:47:16.427Z,109.27
2022-11-23T19:49:46.223Z,108.90
2022-11-23T19:52:13.331Z,90.17
2022-11-23T19:54:40.508Z,103.80
2022-11-23T19:57:07.594Z,83.37
2022-11-23T19:59:35.152Z,88.50
2022-11-23T20:02:02.628Z,77.27
2022-11-23T20:04:30.284Z,69.87
2022-11-23T20:06:57.537Z,74.10
2022-11-23T20:09:24.621Z,84.00
2022-11-23T20:11:52.040Z,81.50
2022-11-23T20:14:19.757Z,60.90
2022-11-23T20:16:47.883Z,65.93
2022-11-23T20:19:14.980Z,66.87
2022-11-23T20:21:42.117Z,73.60
2022-11-23T20:24:11.872Z,62.57
2022-11-23T20:26:39.030Z,51.83
2022-11-23T20:29:06.821Z,57.60
2022-11-23T20:31:37.474Z,57.93
2022-11-23T20:34:07.334Z,76.00
2022-11-23T20:36:36.557Z,65.47
2022-11-23T20:39:05.368Z,60.97
2022-11-23T20:41:34.337Z,57.77
2022-11-23T20:44:05.878Z,55.27
2022-11-23T20:49:20.773Z,58.17
2022-11-23T20:51:47.811Z,63.53
2022-11-23T20:54:14.852Z,50.77
2022-11-23T20:56:42.012Z,53.60
2022-11-23T20:59:09.117Z,50.70
2022-11-23T21:01:36.296Z,55.37
2022-11-23T21:04:03.796Z,43.17
2022-11-23T21:06:35.766Z,40.90
2022-11-23T21:09:05.647Z,33.17
2022-11-23T21:11:51.721Z,35.63
2022-11-23T21:14:24.339Z,44.83
2022-11-23T21:16:56.019Z,46.67
2022-11-23T21:21:50.341Z,40.37
2022-11-23T21:24:17.443Z,40.20
2022-11-23T21:26:44.488Z,38.67
2022-11-23T21:29:11.690Z,139.70
2022-11-23T21:31:43.000Z,47.03
2022-11-23T21:34:17.524Z,46.92
2022-11-23T21:36:44.705Z,40.73
2022-11-23T21:39:12.284Z,40.27
2022-11-23T21:41:39.507Z,40.40
2022-11-23T21:44:07.716Z,110.60
2022-11-23T21:46:35.462Z,72.60
2022-11-23T21:49:02.631Z,41.80
2022-11-23T21:51:30.407Z,75.37
2022-11-23T21:53:58.200Z,47.10
2022-11-23T21:56:25.679Z,37.43
2022-11-23T21:58:52.849Z,43.33
2022-11-23T22:01:21.154Z,31.37
2022-11-23T22:03:48.766Z,65.20
2022-11-23T22:06:20.399Z,40.03
2022-11-23T22:08:49.012Z,36.93
2022-11-23T22:11:21.762Z,38.20
2022-11-23T22:13:49.456Z,53.87
2022-11-23T22:16:29.946Z,46.83
2022-11-23T22:18:57.606Z,65.20
2022-11-23T22:21:25.785Z,33.17
2022-11-23T22:23:53.035Z,38.40
2022-11-23T22:26:20.681Z,36.70
2022-11-23T22:28:49.050Z,33.53
2022-11-23T22:31:17.724Z,31.90
2022-11-23T22:33:45.327Z,42.47
2022-11-23T22:36:13.877Z,63.10
2022-11-23T22:38:41.250Z,55.03
2022-11-23T22:41:09.963Z,41.00
2022-11-23T22:43:37.329Z,39.77
2022-11-23T22:46:05.847Z,38.97
2022-11-23T22:48:33.565Z,38.00
2022-11-23T22:51:01.643Z,36.87
2022-11-23T22:53:32.400Z,35.37
2022-11-23T22:56:03.448Z,42.03
2022-11-23T22:58:31.384Z,37.80
2022-11-23T23:01:04.555Z,37.20
2022-11-23T23:03:31.908Z,25.40
2022-11-23T23:05:59.846Z,23.67
2022-11-23T23:08:27.829Z,29.03
2022-11-23T23:10:55.411Z,22.83
2022-11-23T23:13:22.802Z,22.77
2022-11-23T23:15:50.013Z,35.20
2022-11-23T23:18:17.167Z,27.90
2022-11-23T23:20:44.325Z,27.20
2022-11-23T23:23:11.515Z,24.90
2022-11-23T23:25:38.798Z,20.33
2022-11-23T23:28:06.021Z,29.07
2022-11-23T23:30:33.186Z,23.60
2022-11-23T23:33:00.425Z,22.43
2022-11-23T23:35:27.610Z,21.57
2022-11-23T23:37:54.741Z,21.30
2022-11-23T23:40:22.440Z,19.13
2022-11-23T23:42:49.645Z,17.17
2022-11-23T23:45:16.779Z,17.00
2022-11-23T23:47:43.927Z,18.70
2022-11-23T23:50:11.099Z,18.43
2022-11-23T23:52:38.371Z,20.97
2022-11-23T23:55:05.807Z,23.57
2022-11-23T23:57:33.653Z,29.90
